Time;durP1;ratioP1;P1;durP2;ratioP2;P2;SDS_P1;SDS_P2;PMS_P1;PMS_P2;Temp;Humidity;BMP_temperature;BMP_pressure;BME280_temperature;BME280_humidity;BME280_pressure;Samples;Min_cycle;Max_cycle;Signal;HPM_P1;HPM_P2
2024/01/05 00:02:27;;;;;;;15.00;10.30;;;;;;;5.83;100.00;99013.64;106294;1252;67043;-58
2024/01/05 00:04:53;;;;;;;14.20;10.00;;;;;;;5.86;100.00;99015.52;105958;1251;71898;-57
2024/01/05 00:07:21;;;;;;;17.90;11.90;;;;;;;5.87;100.00;99010.23;105881;1251;61761;-56
2024/01/05 00:09:48;;;;;;;16.50;11.50;;;;;;;5.86;100.00;99006.20;105786;1251;60332;-57
2024/01/05 00:12:15;;;;;;;15.80;12.50;;;;;;;5.84;100.00;98997.73;105866;1251;72741;-58
2024/01/05 00:14:43;;;;;;;14.70;10.80;;;;;;;5.83;100.00;98991.48;105910;1251;66312;-56
2024/01/05 00:17:10;;;;;;;15.70;11.80;;;;;;;5.80;100.00;98993.86;106165;1250;73011;-57
2024/01/05 00:19:37;;;;;;;14.90;10.60;;;;;;;5.77;100.00;98988.48;105847;1254;60670;-57
2024/01/05 00:22:04;;;;;;;16.60;11.00;;;;;;;5.75;100.00;98992.53;105830;1251;60453;-56
2024/01/05 00:24:31;;;;;;;15.30;10.70;;;;;;;5.72;100.00;98986.92;105951;1251;72366;-57
2024/01/05 00:26:59;;;;;;;16.10;10.40;;;;;;;5.69;100.00;98989.70;106102;1251;65898;-56
2024/01/05 00:29:26;;;;;;;14.30;11.30;;;;;;;5.62;100.00;98996.84;106017;1254;72808;-56
2024/01/05 00:31:53;;;;;;;15.20;10.70;;;;;;;5.57;100.00;98998.67;105878;1251;61037;-56
2024/01/05 00:34:20;;;;;;;16.30;11.40;;;;;;;5.55;100.00;98994.41;106077;1250;60562;-57
2024/01/05 00:36:47;;;;;;;17.70;11.30;;;;;;;5.56;100.00;98993.71;106342;1251;74009;-56
2024/01/05 00:39:16;;;;;;;16.00;10.40;;;;;;;5.57;100.00;98981.04;106004;1251;67262;-56
2024/01/05 00:41:47;;;;;;;17.90;11.60;;;;;;;5.60;100.00;98975.66;105925;1250;72692;-57
2024/01/05 00:44:14;;;;;;;17.10;11.10;;;;;;;5.64;100.00;98977.56;105851;1251;60536;-56
2024/01/05 00:46:41;;;;;;;15.70;11.40;;;;;;;5.66;100.00;98981.25;106321;1250;60139;-57
2024/01/05 00:49:08;;;;;;;15.70;11.30;;;;;;;5.69;100.00;98974.60;106071;1254;73847;-57
2024/01/05 00:51:36;;;;;;;12.80;9.60;;;;;;;5.72;100.00;98981.55;105869;1254;64806;-59
2024/01/05 00:54:03;;;;;;;15.70;9.70;;;;;;;5.75;100.00;98982.73;105821;1251;72929;-56
2024/01/05 00:56:30;;;;;;;14.90;10.20;;;;;;;5.79;100.00;98986.43;106271;1251;60453;-58
2024/01/05 00:58:57;;;;;;;16.90;10.40;;;;;;;5.82;100.00;98986.52;105639;1251;60718;-56
2024/01/05 01:01:24;;;;;;;14.60;10.40;;;;;;;5.85;100.00;98980.50;106027;1252;73883;-56
2024/01/05 01:03:51;;;;;;;20.00;11.50;;;;;;;5.88;100.00;98982.19;105893;1251;67316;-58
2024/01/05 01:06:18;;;;;;;14.50;10.40;;;;;;;5.90;100.00;98979.62;106278;1254;71583;-57
2024/01/05 01:08:45;;;;;;;16.10;9.80;;;;;;;5.90;100.00;98975.65;106562;1250;60636;-57
2024/01/05 01:11:16;;;;;;;13.90;10.20;;;;;;;5.93;100.00;98972.77;106077;1254;61161;-57
2024/01/05 01:13:43;;;;;;;17.00;11.90;;;;;;;5.94;100.00;98969.46;105960;1252;73977;-57
2024/01/05 01:16:11;;;;;;;16.30;11.70;;;;;;;5.94;100.00;98969.08;105839;1254;67272;-56
2024/01/05 01:18:38;;;;;;;14.80;10.10;;;;;;;5.97;100.00;98967.70;105837;1251;72697;-56
2024/01/05 01:21:05;;;;;;;14.90;10.80;;;;;;;6.00;100.00;98960.66;105956;1251;61767;-58
2024/01/05 01:23:33;;;;;;;17.30;11.20;;;;;;;6.00;100.00;98956.61;105834;1254;60534;-56
2024/01/05 01:26:00;;;;;;;14.90;10.90;;;;;;;6.00;100.00;98954.17;105843;1252;73819;-56
2024/01/05 01:28:28;;;;;;;14.10;11.30;;;;;;;6.04;100.00;98954.44;106027;1250;65914;-57
2024/01/05 01:30:54;;;;;;;15.80;10.60;;;;;;;6.06;100.00;98952.09;105738;1251;72595;-57
2024/01/05 01:33:22;;;;;;;16.20;11.60;;;;;;;6.06;100.00;98950.52;105532;1251;61993;-59
2024/01/05 01:35:49;;;;;;;18.20;12.00;;;;;;;6.05;100.00;98951.77;105888;1254;60462;-56
2024/01/05 01:38:16;;;;;;;15.60;11.30;;;;;;;6.04;100.00;98952.06;105761;1254;73864;-58
2024/01/05 01:40:46;;;;;;;15.20;11.60;;;;;;;6.04;100.00;98952.38;106339;1251;66000;-58
2024/01/05 01:43:24;;;;;;;17.70;11.50;;;;;;;6.04;100.00;98956.63;105791;1251;72373;-56
2024/01/05 01:45:58;;;;;;;17.60;12.00;;;;;;;6.06;100.00;98954.57;105695;1254;60548;-56
2024/01/05 01:48:25;;;;;;;15.30;11.40;;;;;;;6.08;100.00;98952.25;106098;1254;60418;-58
2024/01/05 01:50:54;;;;;;;17.00;12.30;;;;;;;6.08;100.00;98953.72;105769;1254;73770;-56
2024/01/05 01:53:21;;;;;;;15.50;11.70;;;;;;;6.10;100.00;98954.06;105903;1254;65851;-56
2024/01/05 01:55:47;;;;;;;14.30;10.90;;;;;;;6.11;100.00;98959.48;105928;1254;71300;-56
2024/01/05 01:58:15;;;;;;;18.60;13.00;;;;;;;6.11;100.00;98953.79;106104;1251;61926;-56
2024/01/05 02:00:43;;;;;;;18.20;12.70;;;;;;;6.08;100.00;98954.32;106091;1250;60341;-56
2024/01/05 02:03:11;;;;;;;15.00;11.50;;;;;;;6.04;100.00;98954.44;106124;1250;72415;-56
2024/01/05 02:05:38;;;;;;;16.30;12.50;;;;;;;5.97;100.00;98952.42;105938;1252;67099;-56
2024/01/05 02:08:05;;;;;;;18.70;13.40;;;;;;;5.89;100.00;98952.41;105864;1254;72692;-56
2024/01/05 02:10:32;;;;;;;19.00;13.30;;;;;;;5.84;100.00;98958.40;106263;1254;60744;-58
2024/01/05 02:12:59;;;;;;;19.40;14.10;;;;;;;5.82;100.00;98960.53;105932;1251;60392;-56
2024/01/05 02:15:26;;;;;;;18.30;13.30;;;;;;;5.81;100.00;98958.25;105893;1254;73915;-57
2024/01/05 02:17:53;;;;;;;16.30;11.90;;;;;;;5.81;100.00;98959.92;105873;1254;67184;-56
2024/01/05 02:20:21;;;;;;;17.90;13.40;;;;;;;5.82;100.00;98969.92;105746;1254;72784;-57
2024/01/05 02:22:56;;;;;;;24.70;14.40;;;;;;;5.83;100.00;98975.06;107132;1251;61680;-57
2024/01/05 02:25:22;;;;;;;18.00;13.40;;;;;;;5.83;100.00;98980.52;105544;1250;60428;-56
2024/01/05 02:27:49;;;;;;;17.20;12.30;;;;;;;5.82;100.00;98985.03;105849;1251;74597;-58
2024/01/05 02:30:20;;;;;;;17.20;12.20;;;;;;;5.81;100.00;98988.70;105898;1251;67318;-58
2024/01/05 02:32:47;;;;;;;17.40;12.00;;;;;;;5.82;100.00;98986.31;106047;1251;72525;-59
2024/01/05 02:35:14;;;;;;;17.00;11.80;;;;;;;5.83;100.00;98989.16;105834;1251;60539;-58
2024/01/05 02:37:43;;;;;;;17.80;12.70;;;;;;;5.84;100.00;98987.34;105708;1251;60446;-58
2024/01/05 02:40:11;;;;;;;16.70;11.40;;;;;;;5.86;100.00;98984.84;105797;1251;73772;-59
2024/01/05 02:42:41;;;;;;;17.60;12.40;;;;;;;5.88;100.00;98988.48;106205;1251;68368;-60
2024/01/05 02:45:08;;;;;;;17.20;12.10;;;;;;;5.87;100.00;98996.79;105766;1251;72383;-58
2024/01/05 02:47:35;;;;;;;16.90;12.10;;;;;;;5.87;100.00;99001.52;105860;1251;60424;-58
2024/01/05 02:50:03;;;;;;;21.20;13.20;;;;;;;5.85;100.00;99002.70;105742;1253;60438;-57
2024/01/05 02:52:30;;;;;;;21.80;15.10;;;;;;;5.83;100.00;99002.44;106029;1254;73585;-59
2024/01/05 02:54:57;;;;;;;19.80;13.90;;;;;;;5.83;100.00;99000.09;105822;1251;322911;-58
2024/01/05 02:57:24;;;;;;;19.10;13.20;;;;;;;5.82;100.00;99001.04;105878;1251;72563;-58
2024/01/05 02:59:51;;;;;;;21.20;13.50;;;;;;;5.82;100.00;99007.63;105781;1250;61853;-58
2024/01/05 03:02:18;;;;;;;23.30;14.80;;;;;;;5.83;100.00;99010.59;105838;1251;60517;-58
2024/01/05 03:04:45;;;;;;;20.70;13.60;;;;;;;5.85;100.00;99012.09;106195;1251;73093;-59
2024/01/05 03:07:12;;;;;;;20.60;14.70;;;;;;;5.88;100.00;99015.73;105681;1257;67088;-58
2024/01/05 03:09:39;;;;;;;20.70;14.20;;;;;;;5.90;100.00;99016.09;105980;1251;72742;-58
2024/01/05 03:12:07;;;;;;;18.00;12.70;;;;;;;5.94;100.00;99017.75;105772;1251;62448;-58
2024/01/05 03:14:34;;;;;;;20.50;12.60;;;;;;;5.95;100.00;99023.73;105839;1251;60456;-59
2024/01/05 03:17:02;;;;;;;19.00;13.30;;;;;;;5.93;100.00;99024.45;105836;1251;72990;-57
2024/01/05 03:19:29;;;;;;;21.50;13.70;;;;;;;5.91;100.00;99025.84;106161;1251;67065;-57
2024/01/05 03:21:56;;;;;;;22.00;13.40;;;;;;;5.90;100.00;99027.33;105867;1251;72670;-56
2024/01/05 03:24:24;;;;;;;15.80;11.90;;;;;;;5.90;100.00;99028.24;105806;1257;60319;-58
2024/01/05 03:26:51;;;;;;;19.70;12.30;;;;;;;5.90;100.00;99026.45;106247;1251;60695;-58
2024/01/05 03:29:17;;;;;;;16.60;11.50;;;;;;;5.90;100.00;99029.70;105853;1251;73884;-57
2024/01/05 03:31:45;;;;;;;16.90;11.50;;;;;;;5.89;100.00;99029.71;105595;1251;67165;-57
2024/01/05 03:34:12;;;;;;;18.90;11.70;;;;;;;5.89;100.00;99026.25;105865;1251;72539;-59
2024/01/05 03:36:40;;;;;;;19.60;11.60;;;;;;;5.89;100.00;99029.72;105866;1257;60408;-57
2024/01/05 03:39:07;;;;;;;18.10;12.40;;;;;;;5.89;100.00;99027.16;106115;1257;60431;-57
2024/01/05 03:41:34;;;;;;;18.90;12.80;;;;;;;5.90;100.00;99031.14;105757;1251;74092;-57
2024/01/05 03:44:01;;;;;;;18.50;11.60;;;;;;;5.91;100.00;99030.04;105887;1251;67125;-57
2024/01/05 03:46:29;;;;;;;19.30;11.60;;;;;;;5.91;100.00;99030.33;105829;1251;72634;-57
2024/01/05 03:48:55;;;;;;;15.90;11.30;;;;;;;5.93;100.00;99044.47;106211;1251;60367;-57
2024/01/05 03:51:22;;;;;;;18.20;11.10;;;;;;;5.94;100.00;99045.98;105444;1251;60018;-57
2024/01/05 03:53:50;;;;;;;16.00;11.30;;;;;;;5.95;100.00;99038.88;105532;1252;73816;-57
2024/01/05 03:56:17;;;;;;;17.20;10.70;;;;;;;5.95;100.00;99044.38;105739;1251;67251;-57
2024/01/05 03:58:44;;;;;;;16.60;11.50;;;;;;;5.95;100.00;99044.30;105862;1251;72397;-57
2024/01/05 04:01:11;;;;;;;21.10;13.10;;;;;;;5.95;100.00;99043.34;106013;1257;61830;-57
2024/01/05 04:03:38;;;;;;;20.30;13.90;;;;;;;5.96;100.00;99034.64;105863;1251;60618;-57
2024/01/05 04:06:05;;;;;;;17.10;11.70;;;;;;;5.97;100.00;99031.45;105794;1257;73645;-59
2024/01/05 04:08:33;;;;;;;20.80;13.30;;;;;;;5.97;100.00;99034.88;105731;1256;65798;-57
2024/01/05 04:10:59;;;;;;;19.30;13.30;;;;;;;5.96;100.00;99033.08;105698;1251;72353;-58
2024/01/05 04:13:26;;;;;;;22.00;14.10;;;;;;;5.96;100.00;99032.16;105593;1256;62013;-57
2024/01/05 04:15:54;;;;;;;21.30;14.00;;;;;;;5.96;100.00;99035.08;105687;1256;60331;-57
2024/01/05 04:18:21;;;;;;;21.10;13.60;;;;;;;5.98;100.00;99033.69;106028;1255;73825;-57
2024/01/05 04:20:48;;;;;;;22.10;14.20;;;;;;;6.00;100.00;99034.27;106044;1251;67207;-57
2024/01/05 04:23:15;;;;;;;21.50;15.10;;;;;;;6.02;100.00;99031.73;105948;1251;72487;-57
2024/01/05 04:25:42;;;;;;;23.70;16.00;;;;;;;6.05;100.00;99029.39;105881;1256;62239;-59
2024/01/05 04:28:09;;;;;;;22.70;14.80;;;;;;;6.07;100.00;99028.61;105793;1251;61098;-57
2024/01/05 04:30:36;;;;;;;22.50;14.30;;;;;;;6.10;100.00;99030.16;105819;1251;72523;-57
2024/01/05 04:33:03;;;;;;;20.00;13.60;;;;;;;6.13;100.00;99031.56;105985;1257;65976;-58
2024/01/05 04:35:31;;;;;;;23.50;14.80;;;;;;;6.13;100.00;99037.77;105790;1251;72910;-57
2024/01/05 04:37:58;;;;;;;21.50;14.30;;;;;;;6.12;100.00;99038.58;105883;1251;60515;-57
2024/01/05 04:40:25;;;;;;;20.50;13.20;;;;;;;6.11;100.00;99042.07;105925;1251;60536;-57
2024/01/05 04:42:51;;;;;;;19.10;13.70;;;;;;;6.15;100.00;99044.23;105864;1251;74017;-57
2024/01/05 04:45:18;;;;;;;19.70;14.30;;;;;;;6.16;100.00;99039.73;105742;1251;67640;-57
2024/01/05 04:47:48;;;;;;;20.60;14.90;;;;;;;6.16;100.00;99035.86;105553;1251;72709;-60
2024/01/05 04:50:15;;;;;;;19.50;13.60;;;;;;;6.16;100.00;99032.34;105918;1251;61829;-57
2024/01/05 04:52:42;;;;;;;20.10;14.20;;;;;;;6.16;100.00;99037.58;105985;1256;60360;-57
2024/01/05 04:55:09;;;;;;;22.00;14.30;;;;;;;6.16;100.00;99040.92;105833;1251;74340;-58
2024/01/05 04:57:36;;;;;;;21.60;15.40;;;;;;;6.17;100.00;99041.89;105786;1251;67104;-59
2024/01/05 05:00:04;;;;;;;21.90;14.50;;;;;;;6.18;100.00;99043.30;105740;1251;72625;-58
2024/01/05 05:02:31;;;;;;;20.90;14.20;;;;;;;6.17;100.00;99045.39;105933;1251;60574;-59
2024/01/05 05:04:58;;;;;;;18.90;14.10;;;;;;;6.15;100.00;99048.01;106168;1254;60370;-60
2024/01/05 05:07:26;;;;;;;18.90;14.60;;;;;;;6.14;100.00;99046.23;105981;1254;73563;-59
2024/01/05 05:09:52;;;;;;;19.50;14.10;;;;;;;6.14;100.00;99050.25;105844;1252;67211;-59
2024/01/05 05:12:19;;;;;;;19.90;14.10;;;;;;;6.14;100.00;99053.52;105870;1254;72672;-59
2024/01/05 05:14:47;;;;;;;20.50;14.40;;;;;;;6.14;100.00;99053.29;105893;1255;60459;-59
2024/01/05 05:17:14;;;;;;;22.00;14.70;;;;;;;6.16;100.00;99056.41;105706;1251;60539;-59
2024/01/05 05:19:41;;;;;;;22.50;15.10;;;;;;;6.19;100.00;99055.72;105817;1254;74044;-58
2024/01/05 05:22:08;;;;;;;23.50;15.10;;;;;;;6.22;100.00;99056.34;105794;1257;66028;-59
2024/01/05 05:24:35;;;;;;;23.10;14.70;;;;;;;6.24;100.00;99057.98;105717;1259;72531;-59
2024/01/05 05:27:02;;;;;;;23.30;16.10;;;;;;;6.24;100.00;99056.52;106306;1251;62183;-60
2024/01/05 05:29:29;;;;;;;23.70;15.20;;;;;;;6.27;100.00;99058.34;105825;1254;60103;-59
2024/01/05 05:31:56;;;;;;;24.90;16.90;;;;;;;6.28;100.00;99060.94;105875;1252;74635;-59
2024/01/05 05:34:24;;;;;;;25.90;17.40;;;;;;;6.30;100.00;99060.48;105902;1252;66438;-58
2024/01/05 05:36:51;;;;;;;28.60;19.60;;;;;;;6.32;100.00;99061.85;106095;1251;72732;-60
2024/01/05 05:39:18;;;;;;;27.70;18.80;;;;;;;6.32;100.00;99060.45;105958;1254;61316;-59
2024/01/05 05:41:45;;;;;;;23.80;17.90;;;;;;;6.33;100.00;99057.77;105958;1251;60374;-59
2024/01/05 05:44:12;;;;;;;27.00;18.60;;;;;;;6.35;100.00;99056.11;105957;1254;73837;-59
2024/01/05 05:46:39;;;;;;;28.10;18.10;;;;;;;6.39;100.00;99055.15;105923;1251;67638;-59
2024/01/05 05:49:06;;;;;;;23.30;16.20;;;;;;;6.40;100.00;99053.26;106267;1251;72794;-59
2024/01/05 05:51:34;;;;;;;27.10;17.20;;;;;;;6.42;100.00;99048.17;105899;1251;60501;-59
2024/01/05 05:54:02;;;;;;;24.40;16.40;;;;;;;6.43;100.00;99045.16;105996;1251;60787;-59
2024/01/05 05:56:29;;;;;;;26.40;16.30;;;;;;;6.46;100.00;99041.39;105921;1251;73828;-59
2024/01/05 05:58:56;;;;;;;27.60;18.70;;;;;;;6.50;100.00;99040.88;106137;1254;66902;-60
2024/01/05 06:01:24;;;;;;;26.30;16.70;;;;;;;6.54;100.00;99039.51;105635;1254;72444;-59
2024/01/05 06:03:51;;;;;;;23.30;17.00;;;;;;;6.57;100.00;99038.23;105876;1252;60542;-59
2024/01/05 06:06:20;;;;;;;24.40;16.80;;;;;;;6.59;100.00;99040.55;105891;1254;59534;-59
2024/01/05 06:08:48;;;;;;;22.20;16.70;;;;;;;6.62;100.00;99043.61;106029;1251;72614;-60
2024/01/05 06:11:18;;;;;;;23.40;16.10;;;;;;;6.64;100.00;99042.66;105760;1251;66033;-60
2024/01/05 06:13:45;;;;;;;22.90;15.70;;;;;;;6.66;100.00;99040.17;105723;1254;71660;-59
2024/01/05 06:16:12;;;;;;;19.60;14.40;;;;;;;6.69;100.00;99041.19;106023;1254;60776;-59
2024/01/05 06:18:40;;;;;;;25.50;17.60;;;;;;;6.71;100.00;99043.16;105937;1251;60367;-60
2024/01/05 06:21:07;;;;;;;21.80;15.60;;;;;;;6.73;100.00;99044.33;106110;1254;73876;-60
2024/01/05 06:23:34;;;;;;;26.10;17.40;;;;;;;6.75;100.00;99036.95;105863;1254;66208;-59
2024/01/05 06:26:01;;;;;;;24.50;15.70;;;;;;;6.77;100.00;99032.52;105835;1251;72596;-60
2024/01/05 06:28:29;;;;;;;23.10;15.80;;;;;;;6.76;100.00;99031.45;105849;1252;60513;-59
2024/01/05 06:30:56;;;;;;;25.20;17.50;;;;;;;6.75;100.00;99030.33;105870;1252;60883;-60
2024/01/05 06:33:23;;;;;;;26.00;17.30;;;;;;;6.76;100.00;99026.95;106053;1255;73705;-60
2024/01/05 06:35:50;;;;;;;27.10;18.20;;;;;;;6.78;100.00;99025.64;105771;1251;66990;-59
2024/01/05 06:38:18;;;;;;;27.60;18.10;;;;;;;6.78;100.00;99025.13;105959;1256;71410;-59
2024/01/05 06:40:45;;;;;;;28.90;18.10;;;;;;;6.79;100.00;99020.91;106273;1251;61013;-59
2024/01/05 06:43:12;;;;;;;31.30;19.50;;;;;;;6.83;100.00;99023.28;105851;1254;60511;-60
2024/01/05 06:45:39;;;;;;;28.50;20.30;;;;;;;6.86;100.00;99026.06;105903;1254;73959;-59
2024/01/05 06:48:06;;;;;;;29.00;19.10;;;;;;;6.89;100.00;99030.65;105893;1251;67118;-61
2024/01/05 06:50:34;;;;;;;25.80;18.20;;;;;;;6.92;100.00;99035.02;105814;1254;72672;-60
2024/01/05 06:53:03;;;;;;;27.00;18.00;;;;;;;6.95;100.00;99034.48;105764;1255;62000;-60
2024/01/05 06:55:30;;;;;;;28.60;20.40;;;;;;;6.97;100.00;99036.41;105765;1251;60442;-60
2024/01/05 06:57:57;;;;;;;25.90;17.30;;;;;;;7.01;100.00;99031.14;105810;1251;73863;-60
2024/01/05 07:00:24;;;;;;;27.70;18.00;;;;;;;7.04;100.00;99029.20;105825;1251;65790;-59
2024/01/05 07:02:51;;;;;;;25.80;17.50;;;;;;;7.11;100.00;99028.44;106029;1254;71788;-59
2024/01/05 07:05:19;;;;;;;24.30;16.80;;;;;;;7.14;100.00;99028.82;105821;1256;61098;-59
2024/01/05 07:07:46;;;;;;;23.10;16.60;;;;;;;7.19;100.00;99026.02;105843;1251;60460;-59
2024/01/05 07:10:13;;;;;;;22.10;15.80;;;;;;;7.23;100.00;99029.75;105634;1256;73755;-59
2024/01/05 07:12:41;;;;;;;20.90;15.90;;;;;;;7.26;100.00;99033.84;105847;1251;65211;-59
2024/01/05 07:15:08;;;;;;;20.10;15.00;;;;;;;7.27;100.00;99037.77;105965;1251;72727;-59
2024/01/05 07:17:35;;;;;;;19.50;14.30;;;;;;;7.27;100.00;99035.83;105683;1251;62012;-60
2024/01/05 07:20:03;;;;;;;22.30;14.70;;;;;;;7.29;100.00;99040.39;105667;1255;60312;-60
2024/01/05 07:22:30;;;;;;;19.00;13.80;;;;;;;7.29;100.00;99043.86;105781;1256;73744;-60
2024/01/05 07:24:57;;;;;;;21.90;14.20;;;;;;;7.30;100.00;99050.52;105764;1251;66210;-61
2024/01/05 07:27:24;;;;;;;18.00;14.60;;;;;;;7.30;100.00;99047.98;105821;1256;72584;-58
2024/01/05 07:29:52;;;;;;;21.70;15.60;;;;;;;7.31;100.00;99047.03;105843;1255;60697;-61
2024/01/05 07:32:19;;;;;;;25.90;18.80;;;;;;;7.33;100.00;99049.62;105827;1251;60440;-60
2024/01/05 07:34:46;;;;;;;33.10;24.30;;;;;;;7.33;100.00;99051.84;106023;1251;73954;-58
2024/01/05 07:37:13;;;;;;;31.30;23.60;;;;;;;7.35;100.00;99049.94;105824;1256;67187;-60
2024/01/05 07:39:40;;;;;;;29.80;22.20;;;;;;;7.34;100.00;99053.85;105713;1256;72661;-59
2024/01/05 07:42:07;;;;;;;31.60;21.90;;;;;;;7.32;100.00;99057.54;105840;1252;60874;-62
2024/01/05 07:44:34;;;;;;;26.10;18.30;;;;;;;7.31;100.00;99065.21;105849;1252;60332;-60
2024/01/05 07:47:01;;;;;;;28.10;21.00;;;;;;;7.32;100.00;99064.61;105800;1257;73850;-58
2024/01/05 07:49:28;;;;;;;28.00;21.20;;;;;;;7.31;100.00;99066.99;105550;1256;65451;-60
2024/01/05 07:51:55;;;;;;;30.90;22.60;;;;;;;7.29;100.00;99063.55;105932;1256;72717;-59
2024/01/05 07:54:22;;;;;;;32.00;23.30;;;;;;;7.29;100.00;99063.96;105893;1251;60417;-58
2024/01/05 07:56:49;;;;;;;35.10;24.30;;;;;;;7.29;100.00;99064.08;106054;1253;60421;-59
2024/01/05 07:59:16;;;;;;;35.10;22.10;;;;;;;7.31;100.00;99063.45;106032;1254;73909;-60
2024/01/05 08:01:43;;;;;;;32.30;21.30;;;;;;;7.33;100.00;99064.10;105908;1251;67223;-59
2024/01/05 08:04:11;;;;;;;45.50;30.30;;;;;;;7.35;100.00;99060.95;105842;1257;72707;-59
2024/01/05 08:06:38;;;;;;;47.50;33.60;;;;;;;7.37;100.00;99061.36;105721;1252;60479;-59
2024/01/05 08:09:05;;;;;;;44.30;32.70;;;;;;;7.40;100.00;99062.75;105736;1256;60966;-60
2024/01/05 08:11:32;;;;;;;43.10;29.60;;;;;;;7.42;100.00;99063.39;105631;1252;72674;-59
2024/01/05 08:13:59;;;;;;;40.00;28.30;;;;;;;7.42;100.00;99064.50;105636;1253;67253;-59
2024/01/05 08:16:26;;;;;;;45.80;31.40;;;;;;;7.44;100.00;99067.27;105868;1251;72874;-59
2024/01/05 08:18:53;;;;;;;49.50;35.20;;;;;;;7.45;100.00;99064.88;106095;1256;60453;-59
2024/01/05 08:21:20;;;;;;;63.40;43.20;;;;;;;7.45;100.00;99063.44;105940;1257;60398;-59
2024/01/05 08:23:47;;;;;;;58.50;43.10;;;;;;;7.43;100.00;99059.09;105909;1251;73772;-59
2024/01/05 08:26:18;;;;;;;48.20;32.90;;;;;;;7.38;100.00;99060.05;105996;1256;67140;-59
2024/01/05 08:28:45;;;;;;;46.30;31.10;;;;;;;7.34;100.00;99058.29;105964;1255;72708;-60
2024/01/05 08:31:12;;;;;;;40.60;29.10;;;;;;;7.29;100.00;99057.61;106149;1251;61745;-60
2024/01/05 08:33:39;;;;;;;42.50;29.00;;;;;;;7.28;100.00;99058.14;105816;1252;59542;-60
2024/01/05 08:36:07;;;;;;;50.50;33.70;;;;;;;7.26;100.00;99057.04;105927;1255;73269;-59
2024/01/05 08:38:34;;;;;;;61.00;40.80;;;;;;;7.25;100.00;99056.64;105807;1251;67182;-59
2024/01/05 08:41:02;;;;;;;81.90;51.70;;;;;;;7.28;100.00;99062.14;105812;1256;71484;-60
2024/01/05 08:43:30;;;;;;;92.50;57.00;;;;;;;7.33;100.00;99065.02;106027;1257;62178;-60
2024/01/05 08:45:57;;;;;;;100.70;60.30;;;;;;;7.35;100.00;99065.77;105884;1257;60421;-58
2024/01/05 08:48:24;;;;;;;92.90;57.30;;;;;;;7.35;100.00;99066.48;106112;1256;73797;-60
2024/01/05 08:50:51;;;;;;;93.10;56.40;;;;;;;7.36;100.00;99067.11;106505;1251;67536;-59
2024/01/05 08:53:19;;;;;;;60.40;38.50;;;;;;;7.38;100.00;99070.02;106032;1251;71143;-58
2024/01/05 08:55:47;;;;;;;50.80;34.10;;;;;;;7.42;100.00;99064.27;105927;1252;60555;-59
2024/01/05 08:58:14;;;;;;;41.10;29.80;;;;;;;7.46;100.00;99067.52;105961;1251;60421;-59
2024/01/05 09:00:41;;;;;;;38.20;27.10;;;;;;;7.48;100.00;99062.46;105887;1252;73799;-59
2024/01/05 09:03:08;;;;;;;35.90;25.90;;;;;;;7.48;100.00;99063.38;105947;1255;67196;-60
2024/01/05 09:05:35;;;;;;;38.80;27.10;;;;;;;7.49;100.00;99060.38;105763;1254;72461;-60
2024/01/05 09:08:03;;;;;;;37.80;25.70;;;;;;;7.51;100.00;99060.25;105755;1253;62033;-60
2024/01/05 09:10:32;;;;;;;34.90;25.50;;;;;;;7.55;100.00;99056.67;105818;1251;60470;-59
2024/01/05 09:13:00;;;;;;;29.70;22.00;;;;;;;7.58;100.00;99059.67;105745;1251;72887;-60
2024/01/05 09:15:27;;;;;;;32.60;21.80;;;;;;;7.64;100.00;99060.26;106082;1256;66045;-60
2024/01/05 09:17:54;;;;;;;33.80;23.00;;;;;;;7.70;100.00;99059.85;106188;1251;72684;-60
2024/01/05 09:20:21;;;;;;;32.10;23.10;;;;;;;7.77;100.00;99056.52;105849;1252;62084;-60
2024/01/05 09:22:48;;;;;;;32.10;22.00;;;;;;;7.85;100.00;99054.87;105950;1252;60453;-59
2024/01/05 09:25:15;;;;;;;30.00;21.70;;;;;;;7.91;100.00;99054.70;106064;1256;72641;-60
2024/01/05 09:27:42;;;;;;;27.60;19.80;;;;;;;7.98;100.00;99056.60;106136;1251;65927;-61
2024/01/05 09:30:10;;;;;;;25.40;17.90;;;;;;;8.02;100.00;99054.49;105936;1257;72804;-62
2024/01/05 09:32:38;;;;;;;23.20;17.10;;;;;;;8.10;100.00;99054.07;106174;1251;63342;-63
2024/01/05 09:35:08;;;;;;;25.00;17.10;;;;;;;8.16;100.00;99051.88;106277;1251;60637;-60
2024/01/05 09:37:36;;;;;;;22.90;16.30;;;;;;;8.23;100.00;99055.88;105873;1256;73824;-63
2024/01/05 09:40:03;;;;;;;23.00;16.70;;;;;;;8.26;100.00;99056.55;105803;1257;66013;-60
2024/01/05 09:42:30;;;;;;;20.80;16.10;;;;;;;8.26;100.00;99064.48;105996;1256;71100;-61
2024/01/05 09:44:59;;;;;;;22.40;16.60;;;;;;;8.22;100.00;99059.20;105883;1256;61312;-60
2024/01/05 09:47:26;;;;;;;23.90;17.10;;;;;;;8.19;100.00;99063.31;106094;1255;60368;-61
2024/01/05 09:49:53;;;;;;;25.70;15.60;;;;;;;8.15;100.00;99057.27;105617;1258;73855;-60
2024/01/05 09:52:21;;;;;;;18.10;13.50;;;;;;;8.07;100.00;99053.79;105832;1257;65906;-60
2024/01/05 09:54:50;;;;;;;20.10;15.30;;;;;;;8.03;100.00;99058.55;106066;1251;72696;-60
2024/01/05 09:57:17;;;;;;;21.10;16.90;;;;;;;7.99;100.00;99057.88;105883;1251;60420;-60
2024/01/05 09:59:46;;;;;;;23.30;17.40;;;;;;;7.95;100.00;99059.06;106055;1255;60409;-60
2024/01/05 10:02:16;;;;;;;22.80;16.20;;;;;;;7.92;100.00;99059.29;105896;1251;74128;-59
2024/01/05 10:04:43;;;;;;;18.40;14.30;;;;;;;7.89;100.00;99060.43;106114;1251;68491;-61
2024/01/05 10:07:10;;;;;;;16.60;13.20;;;;;;;7.85;100.00;99059.27;105842;1251;71545;-59
2024/01/05 10:09:49;;;;;;;17.70;14.20;;;;;;;7.84;100.00;99059.52;105957;1257;62472;-59
2024/01/05 10:12:17;;;;;;;18.80;13.00;;;;;;;7.79;100.00;99061.76;105610;1251;60432;-59
2024/01/05 10:14:47;;;;;;;15.90;12.30;;;;;;;7.77;100.00;99062.11;105544;1257;72694;-60
2024/01/05 10:17:18;;;;;;;18.00;13.60;;;;;;;7.75;100.00;99063.85;106288;1256;65967;-60
2024/01/05 10:19:45;;;;;;;16.20;12.50;;;;;;;7.74;100.00;99064.38;106049;1251;71432;-60
2024/01/05 10:22:13;;;;;;;15.40;12.10;;;;;;;7.73;100.00;99067.73;106061;1251;62618;-60
2024/01/05 10:24:41;;;;;;;17.30;13.10;;;;;;;7.73;100.00;99069.48;106018;1257;62017;-60
2024/01/05 10:27:12;;;;;;;14.60;11.30;;;;;;;7.73;100.00;99068.41;105832;1254;75482;-60
2024/01/05 10:29:43;;;;;;;14.90;11.60;;;;;;;7.72;100.00;99066.15;106202;1257;67621;-62
2024/01/05 10:32:18;;;;;;;16.90;11.80;;;;;;;7.72;100.00;99067.19;106063;1256;72716;-60
2024/01/05 10:34:49;;;;;;;15.40;12.00;;;;;;;7.72;100.00;99069.56;105883;1256;60462;-61
2024/01/05 10:37:19;;;;;;;14.80;12.10;;;;;;;7.77;100.00;99067.98;105971;1253;60809;-59
2024/01/05 10:39:51;;;;;;;16.80;12.30;;;;;;;7.81;100.00;99067.08;106031;1255;75403;-61
2024/01/05 10:42:25;;;;;;;16.70;11.80;;;;;;;7.86;100.00;99067.89;105963;1251;68507;-59
2024/01/05 10:44:56;;;;;;;15.00;10.00;;;;;;;7.88;100.00;99073.61;105955;1256;71331;-60
2024/01/05 10:47:31;;;;;;;16.10;13.20;;;;;;;7.87;100.00;99073.75;105976;1255;61901;-59
2024/01/05 10:49:58;;;;;;;17.60;13.00;;;;;;;7.86;100.00;99076.95;105957;1257;60374;-61
2024/01/05 10:52:28;;;;;;;17.20;13.40;;;;;;;7.84;100.00;99080.22;106315;1257;75243;-59
2024/01/05 10:54:55;;;;;;;20.70;14.40;;;;;;;7.79;100.00;99080.44;106154;1256;67520;-59
2024/01/05 10:57:26;;;;;;;19.80;15.00;;;;;;;7.75;100.00;99085.89;105682;1257;74365;-59
2024/01/05 10:59:54;;;;;;;22.90;16.30;;;;;;;7.70;100.00;99087.46;105884;1257;61651;-60
2024/01/05 11:02:22;;;;;;;19.70;15.00;;;;;;;7.67;100.00;99091.48;106042;1257;61342;-61
2024/01/05 11:05:05;;;;;;;19.20;15.70;;;;;;;7.65;100.00;99092.11;105998;1257;75319;-59
2024/01/05 11:07:32;;;;;;;21.60;16.80;;;;;;;7.64;100.00;99092.25;105493;1251;68712;-61
2024/01/05 11:10:19;;;;;;;22.80;17.50;;;;;;;7.63;100.00;99095.73;105791;1251;73554;-62
2024/01/05 11:13:15;;;;;;;20.80;16.00;;;;;;;7.59;100.00;99099.41;106020;1257;61696;-59